createdAt,value
2018-08-24T00:00:59.519Z,83.56
2018-08-24T00:02:09.369Z,83.75
2018-08-24T00:03:18.675Z,83.37
2018-08-24T00:04:28.248Z,84.05
2018-08-24T00:05:37.553Z,83.95
2018-08-24T00:06:47.674Z,84.05
2018-08-24T00:07:57.255Z,83.95
2018-08-24T00:09:07.095Z,83.85
2018-08-24T00:10:17.206Z,84.05
2018-08-24T00:11:27.096Z,84.05
2018-08-24T00:12:36.941Z,83.56
2018-08-24T00:13:46.525Z,83.95
2018-08-24T00:14:56.099Z,83.85
2018-08-24T00:16:05.938Z,83.95
2018-08-24T00:17:15.510Z,83.08
2018-08-24T00:18:25.616Z,84.23
2018-08-24T00:19:35.728Z,84.23
2018-08-24T00:20:45.303Z,83.95
2018-08-24T00:21:54.604Z,84.23
2018-08-24T00:23:04.175Z,84.33
2018-08-24T00:24:14.284Z,83.95
2018-08-24T00:25:24.407Z,83.37
2018-08-24T00:26:33.985Z,84.23
2018-08-24T00:27:43.556Z,83.8
2018-08-24T00:28:53.397Z,83.75
2018-08-24T00:30:02.971Z,84.05
2018-08-24T00:31:12.813Z,84.33
2018-08-24T00:32:22.385Z,83.85
2018-08-24T00:33:31.960Z,83.37
2018-08-24T00:34:42.073Z,83.95
2018-08-24T00:35:51.644Z,83.95
2018-08-24T00:37:01.749Z,84.05
2018-08-24T00:38:17.640Z,83.47
2018-08-24T00:39:27.759Z,84.23
2018-08-24T00:40:37.923Z,84.05
2018-08-24T00:41:48.036Z,83.75
2018-08-24T00:42:58.152Z,83.85
2018-08-24T00:44:07.992Z,83.85
2018-08-24T00:45:17.301Z,83.95
2018-08-24T00:46:27.139Z,84.05
2018-08-24T00:47:36.981Z,83.95
2018-08-24T00:48:46.820Z,84.09
2018-08-24T00:49:56.389Z,83.95
2018-08-24T00:51:05.967Z,84.33
2018-08-24T00:52:15.269Z,83.85
2018-08-24T00:53:24.840Z,83.85
2018-08-24T00:54:34.681Z,84.05
2018-08-24T00:55:44.521Z,83.66
2018-08-24T00:56:54.632Z,83.85
2018-08-24T00:58:04.201Z,82.6
2018-08-24T00:59:13.772Z,82.08
2018-08-24T01:00:23.071Z,82.41
2018-08-24T01:01:32.651Z,81.6
2018-08-24T01:02:42.226Z,81.3
2018-08-24T01:03:52.072Z,80.73
2018-08-24T01:05:02.182Z,80.06
2018-08-24T01:06:11.495Z,79.1
2018-08-24T01:07:21.337Z,73.71
2018-08-24T01:08:31.532Z,65.33
2018-08-24T01:09:41.375Z,53.09
2018-08-24T01:10:51.221Z,49.84
2018-08-24T01:12:01.059Z,45.68
2018-08-24T01:13:11.180Z,41.91
2018-08-24T01:14:21.023Z,33.72
2018-08-24T01:15:31.132Z,34.88
2018-08-24T01:16:40.434Z,27.48
2018-08-24T01:17:49.743Z,24.88
2018-08-24T01:18:59.584Z,27.76
2018-08-24T01:20:09.151Z,25.64
2018-08-24T01:21:19.004Z,22.95
2018-08-24T01:22:28.843Z,19.11
2018-08-24T01:23:38.139Z,22.66
2018-08-24T01:24:47.977Z,20.73
2018-08-24T01:25:57.553Z,13.82
2018-08-24T01:27:07.402Z,12.57
2018-08-24T01:28:17.238Z,12.08
2018-08-24T01:29:26.813Z,13.33
2018-08-24T01:30:36.381Z,12.57
2018-08-24T01:31:46.489Z,10.74
2018-08-24T01:32:56.380Z,6.62
2018-08-24T01:34:05.951Z,9.4
2018-08-24T01:35:15.531Z,7.87
2018-08-24T01:36:25.371Z,14.48
2018-08-24T01:37:35.206Z,12.08
2018-08-24T01:38:45.041Z,11.6
2018-08-24T01:39:54.610Z,9.49
2018-08-24T01:41:04.448Z,5.94
2018-08-24T01:42:13.750Z,3.45
2018-08-24T01:43:23.856Z,3.16
2018-08-24T01:44:33.961Z,2.97
2018-08-24T01:45:44.062Z,3.16
2018-08-24T01:46:53.911Z,2.68
2018-08-24T01:48:03.210Z,1.63
2018-08-24T01:49:13.047Z,2.01
2018-08-24T01:50:22.619Z,3.35
2018-08-24T01:51:32.187Z,1.53
2018-08-24T01:52:42.294Z,1.43
2018-08-24T01:53:52.401Z,3.06
2018-08-24T01:55:01.969Z,2.3
2018-08-24T01:56:11.809Z,2.39
2018-08-24T01:57:21.915Z,2.59
2018-08-24T01:58:31.748Z,3.64
2018-08-24T01:59:41.316Z,2.39
2018-08-24T02:00:50.885Z,2.2
2018-08-24T02:02:00.506Z,1.92
2018-08-24T02:03:10.345Z,0.67
2018-08-24T02:04:20.213Z,1.43
2018-08-24T02:05:29.789Z,2.49
2018-08-24T02:06:39.894Z,1.34
2018-08-24T02:07:49.737Z,0.57
2018-08-24T02:08:59.578Z,0
2018-08-24T02:10:09.145Z,0
2018-08-24T02:11:18.984Z,0
2018-08-24T02:12:28.553Z,0
2018-08-24T02:13:37.584Z,0
2018-08-24T02:14:47.698Z,0
2018-08-24T02:15:57.003Z,0
2018-08-24T02:17:06.585Z,0
2018-08-24T02:18:16.426Z,0
2018-08-24T02:19:26.534Z,0
2018-08-24T02:20:35.565Z,0
2018-08-24T02:21:45.414Z,0
2018-08-24T02:22:55.525Z,0
2018-08-24T02:24:04.557Z,0
2018-08-24T02:25:14.666Z,0
2018-08-24T02:26:24.775Z,0
2018-08-24T02:27:34.616Z,0
2018-08-24T02:28:44.459Z,0
2018-08-24T02:29:54.566Z,0
2018-08-24T02:31:04.198Z,0
2018-08-24T02:32:14.151Z,0
2018-08-24T02:33:23.992Z,0
2018-08-24T02:34:33.561Z,0
2018-08-24T02:35:43.403Z,0
2018-08-24T02:36:52.974Z,0
2018-08-24T02:38:02.276Z,0
2018-08-24T02:39:11.862Z,0
2018-08-24T02:40:21.710Z,0
2018-08-24T02:41:31.545Z,0
2018-08-24T02:42:40.845Z,0
2018-08-24T02:43:50.415Z,0
2018-08-24T02:45:00.654Z,0
2018-08-24T02:46:10.876Z,0
2018-08-24T02:47:20.726Z,0
2018-08-24T02:48:30.609Z,0
2018-08-24T02:49:39.909Z,0
2018-08-24T02:50:49.490Z,0
2018-08-24T02:51:59.324Z,0
2018-08-24T02:53:09.166Z,0
2018-08-24T02:54:19.059Z,0
2018-08-24T02:55:28.920Z,0
2018-08-24T02:56:38.474Z,0
2018-08-24T02:57:48.614Z,0
2018-08-24T02:58:57.919Z,0
2018-08-24T03:00:07.771Z,0
2018-08-24T03:01:17.882Z,0
2018-08-24T03:02:27.743Z,0
2018-08-24T03:03:37.315Z,0
2018-08-24T03:04:47.149Z,0
2018-08-24T03:05:57.255Z,0
2018-08-24T03:07:06.829Z,0
2018-08-24T03:08:16.165Z,0
2018-08-24T03:09:26.456Z,0
2018-08-24T03:10:36.031Z,0
2018-08-24T03:11:45.873Z,0
2018-08-24T03:12:55.448Z,0
2018-08-24T03:14:05.067Z,0.48
2018-08-24T03:15:14.098Z,0
2018-08-24T03:16:24.435Z,0
2018-08-24T03:17:35.048Z,0
2018-08-24T03:18:45.167Z,0.09
2018-08-24T03:19:55.010Z,0
2018-08-24T03:21:04.315Z,0
2018-08-24T03:22:13.887Z,0
2018-08-24T03:23:23.739Z,0
2018-08-24T03:24:33.845Z,1.82
2018-08-24T03:25:43.952Z,0
2018-08-24T03:26:53.523Z,0
2018-08-24T03:28:03.093Z,1.05
2018-08-24T03:29:12.930Z,0
2018-08-24T03:30:22.783Z,0
2018-08-24T03:31:32.633Z,0
2018-08-24T03:32:42.477Z,0
2018-08-24T03:33:52.048Z,0
2018-08-24T03:35:01.619Z,0
2018-08-24T03:36:10.644Z,2.58
2018-08-24T03:37:20.752Z,2.29
2018-08-24T03:38:29.781Z,2.68
2018-08-24T03:39:39.895Z,2.77
2018-08-24T03:40:49.457Z,0.09
2018-08-24T03:41:59.020Z,0
2018-08-24T03:43:08.610Z,1.72
2018-08-24T03:44:18.445Z,3.54
2018-08-24T03:45:27.753Z,2.2
2018-08-24T03:46:37.322Z,3.63
2018-08-24T03:47:46.619Z,2.58
2018-08-24T03:48:56.185Z,1.62
2018-08-24T03:50:06.029Z,1.24
2018-08-24T03:51:15.869Z,0.86
2018-08-24T03:52:25.978Z,0.76
2018-08-24T03:53:35.820Z,0.19
2018-08-24T03:54:45.656Z,0
2018-08-24T03:55:55.244Z,0
2018-08-24T03:57:04.274Z,0
2018-08-24T03:58:14.111Z,0
2018-08-24T03:59:23.413Z,0
2018-08-24T04:00:33.522Z,0
2018-08-24T04:01:43.365Z,0
2018-08-24T04:02:52.939Z,0.09
2018-08-24T04:04:02.561Z,0
2018-08-24T04:05:12.399Z,0.09
2018-08-24T04:06:22.247Z,0
2018-08-24T04:07:32.085Z,0.57
2018-08-24T04:08:41.652Z,0
2018-08-24T04:09:51.823Z,0
2018-08-24T04:11:01.387Z,0
2018-08-24T04:12:11.488Z,0
2018-08-24T04:13:21.054Z,1.24
2018-08-24T04:14:30.894Z,1.53
2018-08-24T04:15:40.466Z,1.15
2018-08-24T04:16:50.623Z,0
2018-08-24T04:18:00.211Z,0.19
2018-08-24T04:19:09.783Z,0
2018-08-24T04:20:19.431Z,0.19
2018-08-24T04:21:29.282Z,0
2018-08-24T04:22:38.863Z,0
2018-08-24T04:23:48.705Z,0
2018-08-24T04:24:58.279Z,0
2018-08-24T04:26:08.651Z,0
2018-08-24T04:27:18.409Z,0
2018-08-24T04:28:28.244Z,0
2018-08-24T04:29:38.351Z,0
2018-08-24T04:30:47.917Z,0
2018-08-24T04:31:57.755Z,0
2018-08-24T04:33:07.864Z,0
2018-08-24T04:34:17.703Z,0
2018-08-24T04:35:27.031Z,0
2018-08-24T04:36:37.169Z,0
2018-08-24T04:37:46.750Z,0
2018-08-24T04:38:56.590Z,0
2018-08-24T04:40:06.454Z,0
2018-08-24T04:41:16.134Z,0
2018-08-24T04:42:25.984Z,0
2018-08-24T04:43:35.583Z,0
2018-08-24T04:44:45.430Z,1.34
2018-08-24T04:45:55.366Z,2.2
2018-08-24T04:47:04.678Z,0
2018-08-24T04:48:14.245Z,0
2018-08-24T04:49:23.818Z,0
2018-08-24T04:50:33.715Z,0
2018-08-24T04:51:43.562Z,0
2018-08-24T04:52:52.872Z,1.34
2018-08-24T04:54:02.709Z,4.78
2018-08-24T04:55:11.748Z,1.62
2018-08-24T04:56:21.593Z,3.34
2018-08-24T04:57:30.892Z,2.97
2018-08-24T04:58:40.192Z,0
2018-08-24T04:59:49.766Z,4.21
2018-08-24T05:00:59.880Z,3.73
2018-08-24T05:02:09.724Z,4.4
2018-08-24T05:03:19.565Z,6.12
2018-08-24T05:04:29.136Z,4.11
2018-08-24T05:05:38.559Z,4.69
2018-08-24T05:06:48.831Z,3.92
2018-08-24T05:07:58.946Z,4.21
2018-08-24T05:09:08.792Z,3.83
2018-08-24T05:10:18.911Z,5.83
2018-08-24T05:11:29.029Z,4.3
2018-08-24T05:12:38.336Z,0.76
2018-08-24T05:13:48.175Z,4.69
2018-08-24T05:14:57.477Z,4.4
2018-08-24T05:16:06.800Z,5.93
2018-08-24T05:17:16.913Z,0
2018-08-24T05:18:27.081Z,5.26
2018-08-24T05:19:36.916Z,0
2018-08-24T05:20:46.483Z,1.81
2018-08-24T05:21:55.789Z,5.65
2018-08-24T05:23:05.359Z,6.6
2018-08-24T05:24:14.927Z,7.08
2018-08-24T05:25:24.502Z,6.98
2018-08-24T05:26:34.078Z,6.41
2018-08-24T05:27:44.190Z,5.65
2018-08-24T05:28:54.034Z,4.3
2018-08-24T05:30:03.332Z,5.65
2018-08-24T05:31:12.924Z,7.08
2018-08-24T05:32:23.036Z,6.22
2018-08-24T05:33:32.608Z,0
2018-08-24T05:34:42.728Z,6.7
2018-08-24T05:35:52.565Z,9.76
2018-08-24T05:37:02.679Z,10.72
2018-08-24T05:38:12.797Z,10.43
2018-08-24T05:39:22.093Z,8.9
2018-08-24T05:40:31.938Z,10.14
2018-08-24T05:41:41.512Z,4.69
2018-08-24T05:42:51.078Z,6.12
2018-08-24T05:44:00.931Z,6.79
2018-08-24T05:45:11.036Z,0.95
2018-08-24T05:46:20.617Z,8.33
2018-08-24T05:47:30.459Z,7.46
2018-08-24T05:48:40.319Z,7.95
2018-08-24T05:49:50.690Z,9.28
2018-08-24T05:51:00.540Z,8.9
2018-08-24T05:52:09.839Z,11.01
2018-08-24T05:53:19.409Z,9.76
2018-08-24T05:54:28.984Z,9.38
2018-08-24T05:55:38.693Z,10.72
2018-08-24T05:56:48.695Z,7.75
2018-08-24T05:57:58.269Z,5.36
2018-08-24T05:59:08.166Z,6.98
2018-08-24T06:00:18.006Z,11.96
2018-08-24T06:01:27.575Z,12.34
2018-08-24T06:02:37.415Z,12.44
2018-08-24T06:03:46.718Z,11.58
2018-08-24T06:04:55.798Z,10.81
2018-08-24T06:06:05.667Z,12.73
2018-08-24T06:07:15.777Z,12.05
2018-08-24T06:08:25.630Z,12.34
2018-08-24T06:09:34.926Z,14.07
2018-08-24T06:10:44.513Z,13.31
2018-08-24T06:11:54.682Z,14.35
2018-08-24T06:13:04.524Z,14.16
2018-08-24T06:14:14.099Z,7.46
2018-08-24T06:15:23.950Z,9.48
2018-08-24T06:16:33.836Z,15.03
2018-08-24T06:17:42.818Z,16.74
2018-08-24T06:18:52.656Z,16.08
2018-08-24T06:20:01.958Z,16.37
2018-08-24T06:21:11.263Z,15.99
2018-08-24T06:22:21.121Z,16.18
2018-08-24T06:23:30.963Z,15.8
2018-08-24T06:24:41.252Z,17.43
2018-08-24T06:25:51.365Z,17.71
2018-08-24T06:27:00.928Z,19.53
2018-08-24T06:28:10.501Z,18.48
2018-08-24T06:29:20.337Z,18.57
2018-08-24T06:30:30.194Z,18.86
2018-08-24T06:31:40.315Z,20.49
2018-08-24T06:32:50.113Z,18
2018-08-24T06:34:00.161Z,17.52
2018-08-24T06:35:09.736Z,19.82
2018-08-24T06:36:19.848Z,18.39
2018-08-24T06:37:29.698Z,23.17
2018-08-24T06:38:39.542Z,19.82
2018-08-24T06:39:49.385Z,22.11
2018-08-24T06:40:59.238Z,22.5
2018-08-24T06:42:08.541Z,24.8
2018-08-24T06:43:17.843Z,25.46
2018-08-24T06:44:27.418Z,23.17
2018-08-24T06:45:37.259Z,24.41
2018-08-24T06:46:46.827Z,24.8
2018-08-24T06:47:56.659Z,26.15
2018-08-24T06:49:06.494Z,27.49
2018-08-24T06:50:16.338Z,28.34
2018-08-24T06:51:26.221Z,28.63
2018-08-24T06:52:36.060Z,25.46
2018-08-24T06:53:46.477Z,28.05
2018-08-24T06:54:56.950Z,27.95
2018-08-24T06:56:06.801Z,29.87
2018-08-24T06:57:16.645Z,31.21
2018-08-24T06:58:26.769Z,31.69
2018-08-24T06:59:36.850Z,31.69
2018-08-24T07:00:46.722Z,29.87
2018-08-24T07:01:56.831Z,31.32
2018-08-24T07:03:06.446Z,31.32
2018-08-24T07:04:16.011Z,31.32
2018-08-24T07:05:25.587Z,33.43
2018-08-24T07:06:35.437Z,33.43
2018-08-24T07:07:45.277Z,33.91
2018-08-24T07:08:55.121Z,34.39
2018-08-24T07:10:04.418Z,33.33
2018-08-24T07:11:14.299Z,31.23
2018-08-24T07:12:24.154Z,32.47
2018-08-24T07:13:34.279Z,32.09
2018-08-24T07:14:43.596Z,28.64
2018-08-24T07:15:53.705Z,33.45
2018-08-24T07:17:03.287Z,37.66
2018-08-24T07:18:12.854Z,24.82
2018-08-24T07:19:22.419Z,39.87
2018-08-24T07:20:32.273Z,31.24
2018-08-24T07:21:41.842Z,38.81
2018-08-24T07:22:51.682Z,42.36
2018-08-24T07:24:01.255Z,41.48
2018-08-24T07:25:11.514Z,36.3
2018-08-24T07:26:22.133Z,36.32
2018-08-24T07:27:31.982Z,22.24
2018-08-24T07:28:41.825Z,38.34
2018-08-24T07:29:51.713Z,41.31
2018-08-24T07:31:01.826Z,43.41
2018-08-24T07:32:11.399Z,38.81
2018-08-24T07:33:20.697Z,43.8
2018-08-24T07:34:30.546Z,44.47
2018-08-24T07:35:40.382Z,44.09
2018-08-24T07:36:49.953Z,44.27
2018-08-24T07:37:59.532Z,42.46
2018-08-24T07:39:09.372Z,43.23
2018-08-24T07:40:19.211Z,44.66
2018-08-24T07:41:29.431Z,43.82
2018-08-24T07:42:40.168Z,46.6
2018-08-24T07:43:50.337Z,43.53
2018-08-24T07:44:59.916Z,45.14
2018-08-24T07:46:09.224Z,46.7
2018-08-24T07:47:18.794Z,46.58
2018-08-24T07:48:28.364Z,40.47
2018-08-24T07:49:37.940Z,43.13
2018-08-24T07:50:47.867Z,45.74
2018-08-24T07:51:57.674Z,48.78
2018-08-24T07:53:07.516Z,48.8
2018-08-24T07:54:17.087Z,45.14
2018-08-24T07:55:26.719Z,47.15
2018-08-24T07:56:36.358Z,46.58
2018-08-24T07:57:46.251Z,36.99
2018-08-24T07:58:56.090Z,42.27
2018-08-24T08:00:05.660Z,43.9
2018-08-24T08:01:15.280Z,44.66
2018-08-24T08:02:25.122Z,42.36
2018-08-24T08:03:34.959Z,37.57
2018-08-24T08:04:44.538Z,42.27
2018-08-24T08:05:54.113Z,41.69
2018-08-24T08:07:04.224Z,41.88
2018-08-24T08:08:14.063Z,38.43
2018-08-24T08:09:23.908Z,39.01
2018-08-24T08:10:33.477Z,41.21
2018-08-24T08:11:43.316Z,40.35
2018-08-24T08:12:52.885Z,37.85
2018-08-24T08:14:02.730Z,38.91
2018-08-24T08:15:12.588Z,38.62
2018-08-24T08:16:22.175Z,39.29
2018-08-24T08:17:32.034Z,38.72
2018-08-24T08:18:41.786Z,37.18
2018-08-24T08:19:52.029Z,38.43
2018-08-24T08:21:01.816Z,27.22
2018-08-24T08:22:11.965Z,35.75
2018-08-24T08:23:21.008Z,37.47
2018-08-24T08:24:30.904Z,37.76
2018-08-24T08:25:40.276Z,39.1
2018-08-24T08:26:50.118Z,29.13
2018-08-24T08:27:59.960Z,38.14
2018-08-24T08:29:09.803Z,35.36
2018-08-24T08:30:19.101Z,37.09
2018-08-24T08:31:29.235Z,38.81
2018-08-24T08:32:39.090Z,39.87
2018-08-24T08:33:48.118Z,39.01
2018-08-24T08:34:57.979Z,38.53
2018-08-24T08:36:07.010Z,38.34
2018-08-24T08:37:16.584Z,41.31
2018-08-24T08:38:26.721Z,31.15
2018-08-24T08:39:36.560Z,40.06
2018-08-24T08:40:46.400Z,40.64
2018-08-24T08:41:56.253Z,40.16
2018-08-24T08:43:05.562Z,40.44
2018-08-24T08:44:15.398Z,41.02
2018-08-24T08:45:25.405Z,40.64
2018-08-24T08:46:35.151Z,39.58
2018-08-24T08:47:44.448Z,40.44
2018-08-24T08:48:54.558Z,39.2
2018-08-24T08:50:04.408Z,40.44
2018-08-24T08:51:13.972Z,43.05
2018-08-24T08:52:23.542Z,42.74
2018-08-24T08:53:33.533Z,43.8
2018-08-24T08:54:43.688Z,43.32
2018-08-24T08:55:52.987Z,44.85
2018-08-24T08:57:02.286Z,44.18
2018-08-24T08:58:12.121Z,42.94
2018-08-24T08:59:22.284Z,42.94
2018-08-24T09:00:32.401Z,33.16
2018-08-24T09:01:42.511Z,42.1
2018-08-24T09:02:52.078Z,44.01
2018-08-24T09:04:01.929Z,45.74
2018-08-24T09:05:11.498Z,44.3
2018-08-24T09:06:21.723Z,44.2
2018-08-24T09:07:31.845Z,45.07
2018-08-24T09:08:41.683Z,45.16
2018-08-24T09:09:51.537Z,44.76
2018-08-24T09:11:01.117Z,47.17
2018-08-24T09:12:10.956Z,46.67
2018-08-24T09:13:20.810Z,46.39
2018-08-24T09:14:30.649Z,48.4
2018-08-24T09:15:40.537Z,47.44
2018-08-24T09:16:50.379Z,47.53
2018-08-24T09:18:00.213Z,49.84
2018-08-24T09:19:09.784Z,49.55
2018-08-24T09:20:19.627Z,49.36
2018-08-24T09:21:29.478Z,49.45
2018-08-24T09:22:39.322Z,49.96
2018-08-24T09:23:48.895Z,49.67
2018-08-24T09:24:58.735Z,50.05
2018-08-24T09:26:08.308Z,47.56
2018-08-24T09:27:18.428Z,53.22
2018-08-24T09:28:28.586Z,52.74
2018-08-24T09:29:38.437Z,53.22
2018-08-24T09:30:48.287Z,52.64
2018-08-24T09:31:58.131Z,54.17
2018-08-24T09:33:07.988Z,53.41
2018-08-24T09:34:17.607Z,53.91
2018-08-24T09:35:27.176Z,54.11
2018-08-24T09:36:37.018Z,56.02
2018-08-24T09:37:47.133Z,56.7
2018-08-24T09:38:57.064Z,56.7
2018-08-24T09:40:06.908Z,59.48
2018-08-24T09:41:16.754Z,60.63
2018-08-24T09:42:26.322Z,58.71
2018-08-24T09:43:35.895Z,63.25
2018-08-24T09:44:45.461Z,61.21
2018-08-24T09:45:54.767Z,63.22
2018-08-24T09:47:04.882Z,64.37
2018-08-24T09:48:14.457Z,63.7
2018-08-24T09:49:24.305Z,62.39
2018-08-24T09:50:34.145Z,57.5
2018-08-24T09:51:43.489Z,65.84
2018-08-24T09:52:53.067Z,67.29
2018-08-24T09:54:02.908Z,66.23
2018-08-24T09:55:13.021Z,62.87
2018-08-24T09:56:22.590Z,67.76
2018-08-24T09:57:32.209Z,68.34
2018-08-24T09:58:41.783Z,68.44
2018-08-24T09:59:51.902Z,69.53
2018-08-24T10:01:01.746Z,70.49
2018-08-24T10:02:11.586Z,71.89
2018-08-24T10:03:21.173Z,72.18
2018-08-24T10:04:30.754Z,72.28
2018-08-24T10:05:40.051Z,71.61
2018-08-24T10:06:50.088Z,70.55
2018-08-24T10:08:00.040Z,71.61
2018-08-24T10:09:09.942Z,74.43
2018-08-24T10:10:19.785Z,74.52
2018-08-24T10:11:29.920Z,74.62
2018-08-24T10:12:39.301Z,67.13
2018-08-24T10:13:49.174Z,75.62
2018-08-24T10:14:59.021Z,73.5
2018-08-24T10:16:09.141Z,77.15
2018-08-24T10:17:18.714Z,79.27
2018-08-24T10:18:28.293Z,77.53
2018-08-24T10:19:38.137Z,79.3
2018-08-24T10:20:47.984Z,79.21
2018-08-24T10:21:58.099Z,76.71
2018-08-24T10:23:07.464Z,79.69
2018-08-24T10:24:17.451Z,77.19
2018-08-24T10:25:27.293Z,79.21
2018-08-24T10:26:37.141Z,82.38
2018-08-24T10:27:47.255Z,82.15
2018-08-24T10:28:57.673Z,81.76
2018-08-24T10:30:07.798Z,82.53
2018-08-24T10:31:17.649Z,83.01
2018-08-24T10:32:27.782Z,83.2
2018-08-24T10:33:37.936Z,83.4
2018-08-24T10:34:48.317Z,83.3
2018-08-24T10:35:57.659Z,81.48
2018-08-24T10:37:07.236Z,82.34
2018-08-24T10:38:17.092Z,78.5
2018-08-24T10:39:26.933Z,83.69
2018-08-24T10:40:37.049Z,83.59
2018-08-24T10:41:46.986Z,83.4
2018-08-24T10:42:56.835Z,83.3
2018-08-24T10:44:06.140Z,83.87
2018-08-24T10:45:15.175Z,83.74
2018-08-24T10:46:25.033Z,83.78
2018-08-24T10:47:34.602Z,83.84
2018-08-24T10:48:44.797Z,84.45
2018-08-24T10:49:54.380Z,84.74
2018-08-24T10:51:03.684Z,84.45
2018-08-24T10:52:13.322Z,85.61
2018-08-24T10:53:22.633Z,84.64
2018-08-24T10:54:32.212Z,83.69
2018-08-24T10:55:42.473Z,83.83
2018-08-24T10:56:52.935Z,84.3
2018-08-24T10:58:02.534Z,82.57
2018-08-24T10:59:12.380Z,84.88
2018-08-24T11:00:21.950Z,83.53
2018-08-24T11:01:31.520Z,82.67
2018-08-24T11:02:41.100Z,82.48
2018-08-24T11:03:50.412Z,81.32
2018-08-24T11:05:00.526Z,81.42
2018-08-24T11:06:10.368Z,81.9
2018-08-24T11:07:20.125Z,81.9
2018-08-24T11:08:30.135Z,81.9
2018-08-24T11:09:39.704Z,83.06
2018-08-24T11:10:49.273Z,82.04
2018-08-24T11:11:59.382Z,81.46
2018-08-24T11:13:09.219Z,81.27
2018-08-24T11:14:19.054Z,81.46
2018-08-24T11:15:28.628Z,79.73
2018-08-24T11:16:38.528Z,78.28
2018-08-24T11:17:48.823Z,78.58
2018-08-24T11:18:58.449Z,78.58
2018-08-24T11:20:08.294Z,78.86
2018-08-24T11:21:17.606Z,78.67
2018-08-24T11:22:27.182Z,78.77
2018-08-24T11:23:37.030Z,79.15
2018-08-24T11:24:46.877Z,80.5
2018-08-24T11:25:56.455Z,78.19
2018-08-24T11:27:06.340Z,75.79
2018-08-24T11:28:16.194Z,76.65
2018-08-24T11:29:26.066Z,76.17
2018-08-24T11:30:35.296Z,78.28
2018-08-24T11:31:44.870Z,78.48
2018-08-24T11:32:54.988Z,78.58
2018-08-24T11:34:04.473Z,77.33
2018-08-24T11:35:14.723Z,77.33
2018-08-24T11:36:24.445Z,75.49
2018-08-24T11:37:34.973Z,76.36
2018-08-24T11:38:44.272Z,77.51
2018-08-24T11:39:54.411Z,76.78
2018-08-24T11:41:03.987Z,78.42
2018-08-24T11:42:13.502Z,78.52
2018-08-24T11:43:23.615Z,76.4
2018-08-24T11:44:33.209Z,74.48
2018-08-24T11:45:42.563Z,75.34
2018-08-24T11:46:51.871Z,75.24
2018-08-24T11:48:01.961Z,75.82
2018-08-24T11:49:11.802Z,74.38
2018-08-24T11:50:21.922Z,72.97
2018-08-24T11:51:31.769Z,71.91
2018-08-24T11:52:41.136Z,72.59
2018-08-24T11:53:50.711Z,73.36
2018-08-24T11:55:00.684Z,73.07
2018-08-24T11:56:10.532Z,72.72
2018-08-24T11:57:20.380Z,73.39
2018-08-24T11:58:30.232Z,73.39
2018-08-24T11:59:39.956Z,74.26
2018-08-24T12:00:50.318Z,73.97
2018-08-24T12:02:00.042Z,74.22
2018-08-24T12:03:10.473Z,73.94
2018-08-24T12:04:20.328Z,74.9
2018-08-24T12:05:29.638Z,75.38
2018-08-24T12:06:39.218Z,76.25
2018-08-24T12:07:49.128Z,77.98
2018-08-24T12:08:59.655Z,82.08
2018-08-24T12:10:08.976Z,87.37
2018-08-24T12:11:18.824Z,87.13
2018-08-24T12:12:28.203Z,87.19
2018-08-24T12:13:38.384Z,87.82
2018-08-24T12:14:48.027Z,85.95
2018-08-24T12:15:57.614Z,86.33
2018-08-24T12:17:07.195Z,86.62
2018-08-24T12:18:16.594Z,86.18
2018-08-24T12:19:26.599Z,84.74
2018-08-24T12:20:36.440Z,85.89
2018-08-24T12:21:46.439Z,83.53
2018-08-24T12:22:56.613Z,83.92
2018-08-24T12:24:06.455Z,84.59
2018-08-24T12:25:16.306Z,83.83
2018-08-24T12:26:26.153Z,82.76
2018-08-24T12:27:36.267Z,82.81
2018-08-24T12:28:45.834Z,83.58
2018-08-24T12:29:55.410Z,82.61
2018-08-24T12:31:05.060Z,82.23
2018-08-24T12:32:15.003Z,84.16
2018-08-24T12:33:24.901Z,81.84
2018-08-24T12:34:34.254Z,82.65
2018-08-24T12:35:43.930Z,80.35
2018-08-24T12:36:53.780Z,80.73
2018-08-24T12:38:03.252Z,79.48
2018-08-24T12:39:13.079Z,79.77
2018-08-24T12:40:22.922Z,80.44
2018-08-24T12:41:32.772Z,80.44
2018-08-24T12:42:42.624Z,81.02
2018-08-24T12:43:52.202Z,79.61
2018-08-24T12:45:01.784Z,78.75
2018-08-24T12:46:11.356Z,78.94
2018-08-24T12:47:21.212Z,80
2018-08-24T12:48:30.534Z,79.71
2018-08-24T12:49:39.827Z,78.94
2018-08-24T12:50:49.954Z,79.94
2018-08-24T12:51:59.900Z,79.46
2018-08-24T12:53:09.628Z,78.88
2018-08-24T12:54:19.474Z,79.9
2018-08-24T12:55:29.321Z,80.25
2018-08-24T12:56:39.445Z,80.06
2018-08-24T12:57:49.566Z,81.21
2018-08-24T12:58:59.411Z,81.02
2018-08-24T13:00:08.993Z,82.65
2018-08-24T13:01:18.855Z,86.51
2018-08-24T13:02:28.707Z,86.36
2018-08-24T13:03:38.294Z,79.17
2018-08-24T13:04:48.185Z,60.6
2018-08-24T13:05:57.215Z,33.92
2018-08-24T13:07:06.799Z,18.09
2018-08-24T13:08:16.641Z,23.44
2018-08-24T13:09:26.499Z,12.81
2018-08-24T13:10:35.819Z,8.22
2018-08-24T13:11:45.131Z,1.34
2018-08-24T13:12:54.968Z,0
2018-08-24T13:14:04.273Z,0
2018-08-24T13:15:13.390Z,0
2018-08-24T13:16:23.923Z,0
2018-08-24T13:17:33.281Z,0
2018-08-24T13:18:43.127Z,0
2018-08-24T13:19:52.973Z,0
2018-08-24T13:21:02.278Z,0
2018-08-24T13:22:11.582Z,0
2018-08-24T13:23:21.425Z,1.24
2018-08-24T13:24:31.001Z,0
2018-08-24T13:25:40.309Z,0
2018-08-24T13:26:50.164Z,6.22
2018-08-24T13:27:59.743Z,0
2018-08-24T13:29:10.567Z,0
2018-08-24T13:30:20.408Z,4.5
2018-08-24T13:31:29.990Z,10.35
2018-08-24T13:32:39.296Z,21.25
2018-08-24T13:33:49.149Z,19.15
2018-08-24T13:34:58.508Z,9.47
2018-08-24T13:36:07.817Z,23.92
2018-08-24T13:37:17.940Z,21.24
2018-08-24T13:38:27.512Z,20.95
2018-08-24T13:39:37.623Z,20.86
2018-08-24T13:40:47.194Z,21.15
2018-08-24T13:41:57.053Z,15.5
2018-08-24T13:43:06.705Z,15.5
2018-08-24T13:44:16.546Z,22.11
2018-08-24T13:45:25.582Z,10.05
2018-08-24T13:46:35.431Z,8.61
2018-08-24T13:47:45.010Z,3.92
2018-08-24T13:48:54.312Z,23.36
2018-08-24T13:50:04.162Z,19.43
2018-08-24T13:51:13.471Z,14.08
2018-08-24T13:52:22.780Z,12.16
2018-08-24T13:53:32.115Z,35.36
2018-08-24T13:54:42.774Z,26.07
2018-08-24T13:55:52.998Z,37.68
2018-08-24T13:57:02.905Z,40.94
2018-08-24T13:58:12.755Z,32.62
2018-08-24T13:59:22.113Z,57.78
2018-08-24T14:00:32.417Z,51.25
2018-08-24T14:01:42.263Z,50.2
2018-08-24T14:02:52.125Z,42.06
2018-08-24T14:04:01.970Z,69.72
2018-08-24T14:05:11.571Z,62.71
2018-08-24T14:06:21.504Z,46.67
2018-08-24T14:07:31.091Z,51.18
2018-08-24T14:08:40.400Z,36.03
2018-08-24T14:09:49.974Z,59.34
2018-08-24T14:10:59.547Z,67.9
2018-08-24T14:12:09.661Z,44.82
2018-08-24T14:13:19.274Z,33.51
2018-08-24T14:14:29.263Z,59.34
2018-08-24T14:15:38.305Z,53.27
2018-08-24T14:16:48.162Z,58.94
2018-08-24T14:17:57.742Z,46.74
2018-08-24T14:19:07.321Z,49.15
2018-08-24T14:20:16.637Z,61.43
2018-08-24T14:21:26.219Z,60.75
2018-08-24T14:22:36.065Z,61.24
2018-08-24T14:23:45.689Z,50.78
2018-08-24T14:24:55.804Z,75.48
2018-08-24T14:26:05.385Z,76.48
2018-08-24T14:27:15.245Z,82.24
2018-08-24T14:28:24.820Z,78.63
2018-08-24T14:29:34.407Z,83.19
2018-08-24T14:30:43.992Z,69.44
2018-08-24T14:31:54.129Z,74.82
2018-08-24T14:33:04.005Z,87.37
2018-08-24T14:34:13.314Z,66.01
2018-08-24T14:35:22.891Z,85.02
2018-08-24T14:36:32.469Z,85.78
2018-08-24T14:37:42.315Z,84.44
2018-08-24T14:38:52.172Z,71.88
2018-08-24T14:40:01.750Z,85.31
2018-08-24T14:41:11.329Z,82.56
2018-08-24T14:42:21.484Z,83.52
2018-08-24T14:43:31.069Z,83.04
2018-08-24T14:44:40.928Z,84.77
2018-08-24T14:45:51.054Z,85.06
2018-08-24T14:47:00.907Z,83.96
2018-08-24T14:48:10.644Z,86.36
2018-08-24T14:49:20.517Z,83.29
2018-08-24T14:50:30.366Z,82.57
2018-08-24T14:51:40.495Z,84.98
2018-08-24T14:52:50.356Z,67.1
2018-08-24T14:53:59.935Z,76.36
2018-08-24T14:55:09.515Z,86.65
2018-08-24T14:56:19.370Z,84.29
2018-08-24T14:57:29.377Z,85.54
2018-08-24T14:58:39.722Z,85.2
2018-08-24T14:59:49.037Z,81.45
2018-08-24T15:00:58.893Z,82.08
2018-08-24T15:02:08.471Z,82.56
2018-08-24T15:03:18.109Z,83.52
2018-08-24T15:04:28.083Z,87.13
2018-08-24T15:05:38.696Z,84.87
2018-08-24T15:06:48.005Z,83.67
2018-08-24T15:07:57.584Z,82.42
2018-08-24T15:09:07.435Z,84.16
2018-08-24T15:10:16.750Z,84.83
2018-08-24T15:11:26.599Z,84.78
2018-08-24T15:12:36.446Z,86.71
2018-08-24T15:13:46.025Z,82.19
2018-08-24T15:14:56.149Z,85.17
2018-08-24T15:16:06.279Z,85.75
2018-08-24T15:17:16.132Z,85.94
2018-08-24T15:18:25.437Z,86.38
2018-08-24T15:19:34.739Z,81.9
2018-08-24T15:20:44.588Z,83.59
2018-08-24T15:21:54.436Z,81.86
2018-08-24T15:23:03.534Z,79.94
2018-08-24T15:24:13.441Z,85.89
2018-08-24T15:25:23.285Z,85.32